St Croix, Virgin Islands
Current Conditions -  °F | °C
As of 11:00 AM on Wednesday 26 Nov 2014 (Local Time) from TUPJ Reporting Station
Scattered Clouds Scattered Clouds  
Wind Chill: 86°   Ceiling: Unl
Heat Index: 95°   Visibility: 6mi
Dew Point: 75°   Wind: 13mph
Humidity: 70%   Direction: 100°E
Pressure: 30.03"   Gusts: NA
Location:  17.7488°N, 64.7039°W
Report Text: TUPJ 261500Z 10011KT 9999 SCT021 30/24 Q1017
Loading
Personal Weather Stations






























Interactive Weather Map New forecast layout! Learn more

10-Day Weather Forecast

Advertisements
Track Severe Weather on mobile